Time;durP1;ratioP1;P1;durP2;ratioP2;P2;SDS_P1;SDS_P2;PMS_P1;PMS_P2;Temp;Humidity;BMP_temperature;BMP_pressure;BME280_temperature;BME280_humidity;BME280_pressure;Samples;Min_cycle;Max_cycle;Signal;HPM_P1;HPM_P2
2022/09/02 00:01:37;;;;;;;20.05;17.98;;;;;;;;;;6215246;23;20389;-75
2022/09/02 00:04:06;;;;;;;19.48;17.50;;;;;;;;;;6215287;23;20079;-74
2022/09/02 00:06:33;;;;;;;19.25;16.38;;;;;;;;;;6215319;23;20028;-74
2022/09/02 00:09:00;;;;;;;17.35;15.55;;;;;;;;;;6215455;23;20000;-75
2022/09/02 00:11:28;;;;;;;19.00;17.10;;;;;;;;;;6215164;23;20012;-74
2022/09/02 00:13:54;;;;;;;15.43;13.88;;;;;;;;;;6215738;23;20001;-74
2022/09/02 00:16:22;;;;;;;17.23;15.48;;;;;;;;;;6214758;23;20020;-75
2022/09/02 00:18:50;;;;;;;16.55;14.77;;;;;;;;;;6215391;23;20096;-75
2022/09/02 00:21:17;;;;;;;16.40;14.68;;;;;;;;;;6214959;23;20008;-73
2022/09/02 00:23:44;;;;;;;14.70;13.07;;;;;;;;;;6214775;23;20005;-75
2022/09/02 00:26:12;;;;;;;18.00;16.10;;;;;;;;;;6214836;23;20035;-75
2022/09/02 00:28:38;;;;;;;15.55;14.00;;;;;;;;;;6215074;23;20031;-74
2022/09/02 00:31:04;;;;;;;14.98;13.50;;;;;;;;;;6215029;23;20001;-75
2022/09/02 00:33:31;;;;;;;14.20;12.90;;;;;;;;;;6215289;23;20028;-73
2022/09/02 00:36:15;;;;;;;13.98;12.65;;;;;;;;;;6215149;23;20000;-74
2022/09/02 00:38:41;;;;;;;14.27;12.95;;;;;;;;;;6215037;23;20082;-74
2022/09/02 00:41:09;;;;;;;15.43;13.77;;;;;;;;;;6214560;23;20004;-75
2022/09/02 00:43:40;;;;;;;15.70;14.18;;;;;;;;;;6214905;23;20074;-75
2022/09/02 00:46:06;;;;;;;13.82;12.52;;;;;;;;;;6214557;23;20008;-74
2022/09/02 00:48:33;;;;;;;14.95;13.52;;;;;;;;;;6214895;23;20067;-73
2022/09/02 00:51:02;;;;;;;15.73;13.48;;;;;;;;;;6214517;23;20005;-74
2022/09/02 00:53:29;;;;;;;21.33;17.95;;;;;;;;;;6214942;23;20076;-74
2022/09/02 00:55:55;;;;;;;14.77;12.50;;;;;;;;;;6214567;23;20333;-75
2022/09/02 00:58:32;;;;;;;14.43;13.07;;;;;;;;;;6214808;23;20080;-73
2022/09/02 01:00:59;;;;;;;13.50;12.30;;;;;;;;;;6214509;23;20333;-74
2022/09/02 01:03:27;;;;;;;12.57;11.38;;;;;;;;;;6214767;23;20004;-74
2022/09/02 01:05:54;;;;;;;13.90;12.50;;;;;;;;;;6214435;23;20055;-74
2022/09/02 01:08:24;;;;;;;12.60;11.40;;;;;;;;;;6214836;23;20032;-75
2022/09/02 01:10:51;;;;;;;11.68;10.57;;;;;;;;;;6214688;23;20039;-74
2022/09/02 01:13:19;;;;;;;16.15;14.43;;;;;;;;;;6215089;23;20087;-74
2022/09/02 01:15:47;;;;;;;12.63;11.38;;;;;;;;;;6214213;23;20063;-74
2022/09/02 01:18:16;;;;;;;12.65;11.48;;;;;;;;;;6214629;23;20011;-74
2022/09/02 01:20:42;;;;;;;11.63;10.63;;;;;;;;;;6214381;23;20012;-74
2022/09/02 01:23:08;;;;;;;13.55;12.35;;;;;;;;;;6214536;23;20001;-74
2022/09/02 01:25:35;;;;;;;12.32;11.18;;;;;;;;;;6214579;23;20084;-75
2022/09/02 01:28:07;;;;;;;12.00;10.80;;;;;;;;;;6214274;23;20000;-75
2022/09/02 01:30:34;;;;;;;12.20;10.95;;;;;;;;;;6214615;23;20071;-75
2022/09/02 01:33:00;;;;;;;11.40;10.30;;;;;;;;;;6214710;23;20004;-75
2022/09/02 01:35:26;;;;;;;13.00;10.82;;;;;;;;;;6187877;23;20384;-74
2022/09/02 01:37:55;;;;;;;12.30;10.30;;;;;;;;;;6214067;23;20059;-74
2022/09/02 01:40:21;;;;;;;13.02;11.65;;;;;;;;;;6214402;23;20087;-74
2022/09/02 01:42:47;;;;;;;13.70;11.57;;;;;;;;;;6214236;23;19997;-74
2022/09/02 01:45:14;;;;;;;12.25;11.10;;;;;;;;;;6214327;23;20083;-75
2022/09/02 01:47:40;;;;;;;12.93;11.70;;;;;;;;;;6214327;23;20001;-74
2022/09/02 01:50:07;;;;;;;12.63;11.32;;;;;;;;;;6214452;23;20052;-75
2022/09/02 01:52:34;;;;;;;11.93;10.82;;;;;;;;;;6214474;23;20001;-74
2022/09/02 01:55:01;;;;;;;12.70;11.52;;;;;;;;;;6214365;23;20011;-74
2022/09/02 01:57:27;;;;;;;13.15;11.75;;;;;;;;;;6214465;23;19997;-75
2022/09/02 01:59:54;;;;;;;13.93;12.57;;;;;;;;;;6214044;23;20003;-74
2022/09/02 02:02:21;;;;;;;12.43;11.23;;;;;;;;;;6214428;23;20005;-75
2022/09/02 02:04:47;;;;;;;13.30;11.93;;;;;;;;;;6213873;23;20005;-74
2022/09/02 02:07:15;;;;;;;13.52;12.32;;;;;;;;;;6214293;23;19996;-74
2022/09/02 02:09:42;;;;;;;13.60;12.27;;;;;;;;;;6214366;23;20083;-75
2022/09/02 02:12:09;;;;;;;14.55;12.63;;;;;;;;;;6214459;23;20003;-74
2022/09/02 02:14:36;;;;;;;13.15;11.85;;;;;;;;;;6214192;23;20098;-75
2022/09/02 02:17:02;;;;;;;14.07;12.30;;;;;;;;;;6213869;23;20420;-74
2022/09/02 02:19:28;;;;;;;12.57;11.48;;;;;;;;;;6214325;23;19997;-75
2022/09/02 02:21:55;;;;;;;14.02;12.63;;;;;;;;;;6213919;23;20332;-74
2022/09/02 02:24:21;;;;;;;12.40;11.20;;;;;;;;;;6214186;23;20455;-74
2022/09/02 02:26:47;;;;;;;11.32;10.23;;;;;;;;;;6214162;23;20428;-74
2022/09/02 02:29:13;;;;;;;12.38;11.18;;;;;;;;;;6214304;23;20003;-76
2022/09/02 02:31:40;;;;;;;14.07;12.68;;;;;;;;;;6214255;23;20088;-75
2022/09/02 02:34:06;;;;;;;14.60;13.07;;;;;;;;;;6213999;23;19997;-75
2022/09/02 02:36:33;;;;;;;12.10;10.85;;;;;;;;;;6214391;23;20095;-74
2022/09/02 02:39:00;;;;;;;12.32;11.02;;;;;;;;;;6213942;23;20051;-74
2022/09/02 02:41:26;;;;;;;12.30;11.10;;;;;;;;;;6214283;23;20003;-74
2022/09/02 02:43:53;;;;;;;14.73;13.18;;;;;;;;;;6213864;23;20302;-74
2022/09/02 02:46:19;;;;;;;14.73;13.32;;;;;;;;;;6214238;23;20051;-75
2022/09/02 02:48:45;;;;;;;12.90;11.70;;;;;;;;;;6215652;23;20001;-75
2022/09/02 02:51:11;;;;;;;13.45;12.15;;;;;;;;;;6216131;23;20005;-74
2022/09/02 02:53:37;;;;;;;14.65;11.73;;;;;;;;;;6216169;23;20005;-74
2022/09/02 02:56:05;;;;;;;13.82;12.52;;;;;;;;;;6215904;23;20026;-74
2022/09/02 02:58:31;;;;;;;14.02;12.60;;;;;;;;;;6216082;23;20062;-75
2022/09/02 03:00:57;;;;;;;14.15;12.82;;;;;;;;;;6215679;23;19997;-76
2022/09/02 03:03:24;;;;;;;14.25;12.90;;;;;;;;;;6215906;23;20004;-74
2022/09/02 03:05:51;;;;;;;14.20;12.77;;;;;;;;;;6216147;23;19997;-74
2022/09/02 03:08:20;;;;;;;13.52;12.13;;;;;;;;;;6216108;23;20004;-76
2022/09/02 03:13:34;;;;;;;13.02;11.57;;;;;;;;;;6216104;23;20019;-75
2022/09/02 03:16:00;;;;;;;12.80;11.60;;;;;;;;;;6215615;23;20429;-75
2022/09/02 03:18:26;;;;;;;12.88;11.57;;;;;;;;;;6215949;23;20071;-75
2022/09/02 03:20:53;;;;;;;12.88;11.18;;;;;;;;;;6215678;23;20424;-74
2022/09/02 03:23:19;;;;;;;12.63;11.38;;;;;;;;;;6215871;23;20000;-75
2022/09/02 03:25:46;;;;;;;11.70;10.63;;;;;;;;;;6215543;23;20054;-74
2022/09/02 03:28:12;;;;;;;12.85;11.65;;;;;;;;;;6215742;23;20090;-75
2022/09/02 03:30:40;;;;;;;12.85;11.75;;;;;;;;;;6215632;23;20005;-75
2022/09/02 03:33:06;;;;;;;12.52;11.32;;;;;;;;;;6215764;23;20011;-75
2022/09/02 03:35:38;;;;;;;12.30;11.10;;;;;;;;;;6215946;23;20076;-75
2022/09/02 03:38:04;;;;;;;20.42;18.33;;;;;;;;;;6215857;23;20035;-75
2022/09/02 03:40:30;;;;;;;12.68;11.57;;;;;;;;;;6215654;23;20487;-76
2022/09/02 03:42:56;;;;;;;12.55;11.27;;;;;;;;;;6215708;23;20005;-76
2022/09/02 03:45:23;;;;;;;12.60;11.40;;;;;;;;;;6215526;23;20100;-75
2022/09/02 03:47:55;;;;;;;11.30;10.20;;;;;;;;;;6215103;23;20011;-75
2022/09/02 03:50:24;;;;;;;11.90;10.75;;;;;;;;;;6215559;23;20082;-75
2022/09/02 03:52:51;;;;;;;11.27;10.23;;;;;;;;;;6215508;23;20084;-77
2022/09/02 03:55:17;;;;;;;13.77;11.90;;;;;;;;;;6215194;23;20001;-76
2022/09/02 03:57:44;;;;;;;14.90;13.45;;;;;;;;;;6214867;23;20014;-75
2022/09/02 04:00:10;;;;;;;11.98;10.77;;;;;;;;;;6215595;23;20004;-75
2022/09/02 04:02:37;;;;;;;13.32;11.93;;;;;;;;;;6214862;23;20028;-76
2022/09/02 04:05:03;;;;;;;12.88;11.57;;;;;;;;;;6215783;23;19997;-77
2022/09/02 04:07:29;;;;;;;14.93;13.40;;;;;;;;;;6215466;23;19997;-74
2022/09/02 04:09:55;;;;;;;15.70;14.20;;;;;;;;;;6214871;23;20000;-76
2022/09/02 04:12:22;;;;;;;13.52;12.13;;;;;;;;;;6215236;23;20012;-75
2022/09/02 04:14:48;;;;;;;13.75;12.43;;;;;;;;;;6214846;23;20070;-75
2022/09/02 04:17:14;;;;;;;16.50;15.00;;;;;;;;;;6215378;23;20008;-76
2022/09/02 04:19:40;;;;;;;45.90;40.97;;;;;;;;;;6215321;23;19997;-75
2022/09/02 04:22:07;;;;;;;27.05;24.23;;;;;;;;;;6215056;23;19997;-76
2022/09/02 04:24:33;;;;;;;14.85;13.27;;;;;;;;;;6215077;23;20004;-74
2022/09/02 04:27:00;;;;;;;13.43;12.02;;;;;;;;;;6214935;23;20393;-74
2022/09/02 04:29:26;;;;;;;14.70;13.30;;;;;;;;;;6214957;23;19997;-76
2022/09/02 04:31:52;;;;;;;14.90;13.40;;;;;;;;;;6214973;23;19996;-75
2022/09/02 04:34:19;;;;;;;13.85;12.55;;;;;;;;;;6215053;23;20047;-76
2022/09/02 04:36:45;;;;;;;18.40;15.38;;;;;;;;;;6215083;23;20080;-74
2022/09/02 04:39:12;;;;;;;13.77;12.35;;;;;;;;;;6214698;23;20036;-75
2022/09/02 04:41:38;;;;;;;13.82;12.52;;;;;;;;;;6215597;23;20332;-75
2022/09/02 04:44:06;;;;;;;11.95;10.68;;;;;;;;;;6214742;23;20036;-75
2022/09/02 04:46:32;;;;;;;12.55;11.35;;;;;;;;;;6215017;23;20000;-76
2022/09/02 04:48:58;;;;;;;13.07;11.88;;;;;;;;;;6214993;23;20007;-76
2022/09/02 04:51:25;;;;;;;13.48;12.10;;;;;;;;;;6215217;23;20071;-76
2022/09/02 04:53:52;;;;;;;13.23;11.93;;;;;;;;;;6214876;23;20009;-76
2022/09/02 04:56:20;;;;;;;13.02;10.88;;;;;;;;;;6214950;23;20436;-76
2022/09/02 04:58:46;;;;;;;12.77;11.57;;;;;;;;;;6215081;23;20025;-77
2022/09/02 05:01:14;;;;;;;13.48;12.18;;;;;;;;;;6214979;23;20080;-77
2022/09/02 05:03:41;;;;;;;12.75;11.50;;;;;;;;;;6214412;23;20027;-77
2022/09/02 05:06:08;;;;;;;13.50;11.98;;;;;;;;;;6188449;23;20047;-76
2022/09/02 05:08:35;;;;;;;14.07;12.68;;;;;;;;;;6214871;23;20011;-76
2022/09/02 05:11:04;;;;;;;13.80;12.32;;;;;;;;;;6214109;23;20039;-76
2022/09/02 05:13:31;;;;;;;12.95;11.38;;;;;;;;;;6214807;23;19996;-76
2022/09/02 05:15:57;;;;;;;12.80;11.60;;;;;;;;;;6214201;23;20340;-76
2022/09/02 05:18:23;;;;;;;13.38;12.07;;;;;;;;;;6214064;23;20005;-75
2022/09/02 05:20:49;;;;;;;14.07;12.73;;;;;;;;;;6214883;23;20005;-77
2022/09/02 05:23:18;;;;;;;14.15;12.70;;;;;;;;;;6214012;23;20429;-76
2022/09/02 05:25:44;;;;;;;14.60;12.15;;;;;;;;;;6212195;23;19996;-77
2022/09/02 05:28:10;;;;;;;12.93;11.73;;;;;;;;;;6213796;23;20054;-77
2022/09/02 05:30:37;;;;;;;10.05;9.18;;;;;;;;;;6214059;23;19997;-76
2022/09/02 05:33:04;;;;;;;9.23;8.07;;;;;;;;;;6211182;23;20459;-79
2022/09/02 05:35:30;;;;;;;9.85;8.93;;;;;;;;;;6212320;23;20023;-81
2022/09/02 05:37:56;;;;;;;9.75;8.85;;;;;;;;;;6213645;23;19996;-79
2022/09/02 05:40:22;;;;;;;8.88;8.07;;;;;;;;;;6214353;23;20059;-79
2022/09/02 05:42:48;;;;;;;9.65;8.85;;;;;;;;;;6214224;23;19997;-78
2022/09/02 05:45:15;;;;;;;8.98;8.13;;;;;;;;;;6211321;23;20070;-77
2022/09/02 05:47:41;;;;;;;10.88;9.95;;;;;;;;;;6212608;23;20101;-77
2022/09/02 05:50:07;;;;;;;9.93;8.90;;;;;;;;;;6210269;23;20008;-77
2022/09/02 05:52:33;;;;;;;9.38;8.48;;;;;;;;;;6212344;23;19997;-79
2022/09/02 05:55:00;;;;;;;9.45;8.55;;;;;;;;;;6212807;23;20450;-77
2022/09/02 05:57:26;;;;;;;9.18;8.23;;;;;;;;;;6211992;23;20009;-77
2022/09/02 05:59:55;;;;;;;14.02;12.63;;;;;;;;;;6213218;23;20004;-80
2022/09/02 06:02:23;;;;;;;12.00;10.77;;;;;;;;;;6213118;23;20351;-78
2022/09/02 06:04:52;;;;;;;9.57;8.68;;;;;;;;;;6212517;23;20423;-76
2022/09/02 06:07:20;;;;;;;10.15;8.75;;;;;;;;;;6213427;23;20019;-79
2022/09/02 06:09:46;;;;;;;9.18;7.53;;;;;;;;;;6212246;23;20028;-78
2022/09/02 06:12:13;;;;;;;21.08;19.23;;;;;;;;;;6212323;23;20004;-78
2022/09/02 06:14:40;;;;;;;10.25;9.25;;;;;;;;;;6185721;23;20017;-79
2022/09/02 06:17:06;;;;;;;10.85;9.82;;;;;;;;;;6212195;23;20336;-77
2022/09/02 06:19:32;;;;;;;9.75;8.85;;;;;;;;;;6212162;23;20436;-78
2022/09/02 06:21:59;;;;;;;9.35;8.45;;;;;;;;;;6212668;23;20042;-78
2022/09/02 06:24:26;;;;;;;7.65;6.90;;;;;;;;;;6214843;23;20433;-77
2022/09/02 06:26:52;;;;;;;10.10;7.47;;;;;;;;;;6213854;23;20054;-77
2022/09/02 06:29:20;;;;;;;6.90;6.18;;;;;;;;;;6214987;23;20047;-79
2022/09/02 06:31:47;;;;;;;8.48;7.00;;;;;;;;;;6213743;23;20035;-78
2022/09/02 06:34:17;;;;;;;7.70;7.00;;;;;;;;;;6215216;23;20000;-78
2022/09/02 06:36:45;;;;;;;6.88;6.28;;;;;;;;;;6186569;23;20004;-77
2022/09/02 06:39:14;;;;;;;6.65;5.72;;;;;;;;;;6214588;23;20072;-76
2022/09/02 06:41:41;;;;;;;7.15;6.40;;;;;;;;;;6187507;23;20043;-75
2022/09/02 06:44:08;;;;;;;7.72;6.53;;;;;;;;;;6214464;23;20012;-76
2022/09/02 06:46:42;;;;;;;7.57;6.78;;;;;;;;;;6214889;23;19997;-77
2022/09/02 06:49:11;;;;;;;7.28;6.22;;;;;;;;;;6162893;23;20459;-75
2022/09/02 06:51:44;;;;;;;6.32;5.82;;;;;;;;;;6214711;23;20380;-77
2022/09/02 06:54:14;;;;;;;8.10;7.38;;;;;;;;;;6186176;23;20071;-77
2022/09/02 06:56:41;;;;;;;7.10;6.40;;;;;;;;;;6187132;23;20131;-77
2022/09/02 06:59:12;;;;;;;6.75;6.25;;;;;;;;;;6214530;23;20001;-77
2022/09/02 07:01:38;;;;;;;7.40;6.70;;;;;;;;;;6214453;23;20032;-77
2022/09/02 07:06:51;;;;;;;9.57;8.68;;;;;;;;;;6214075;23;20075;-77
2022/09/02 07:09:18;;;;;;;9.30;7.72;;;;;;;;;;6214476;23;20432;-75
2022/09/02 07:11:46;;;;;;;7.30;6.63;;;;;;;;;;6214516;23;20343;-78
2022/09/02 07:14:14;;;;;;;7.80;6.40;;;;;;;;;;6214401;23;20039;-77
2022/09/02 07:16:43;;;;;;;7.47;6.57;;;;;;;;;;6212356;23;20012;-76
2022/09/02 07:19:10;;;;;;;6.43;5.90;;;;;;;;;;6211685;23;20031;-78
2022/09/02 07:21:36;;;;;;;7.22;6.55;;;;;;;;;;6213083;23;20167;-78
2022/09/02 07:24:02;;;;;;;7.40;6.53;;;;;;;;;;6212452;23;20345;-76
2022/09/02 07:26:32;;;;;;;7.65;6.88;;;;;;;;;;6210915;23;20004;-77
2022/09/02 07:28:58;;;;;;;6.95;6.25;;;;;;;;;;6210534;23;20008;-78
2022/09/02 07:31:26;;;;;;;7.05;6.32;;;;;;;;;;6212268;23;19996;-76
2022/09/02 07:33:57;;;;;;;6.55;6.05;;;;;;;;;;6211700;23;20012;-77
2022/09/02 07:36:24;;;;;;;7.03;6.20;;;;;;;;;;6212158;23;20004;-77
2022/09/02 07:38:50;;;;;;;6.30;5.80;;;;;;;;;;6184581;23;20415;-77
2022/09/02 07:41:16;;;;;;;5.93;5.35;;;;;;;;;;6211935;23;19996;-76
2022/09/02 07:43:42;;;;;;;6.82;6.25;;;;;;;;;;6209364;23;20026;-78
2022/09/02 07:46:08;;;;;;;5.97;5.47;;;;;;;;;;6211694;23;20301;-77
2022/09/02 07:48:34;;;;;;;5.93;5.43;;;;;;;;;;6212219;23;20009;-77
2022/09/02 07:51:01;;;;;;;7.45;6.03;;;;;;;;;;6211320;23;20001;-78
2022/09/02 07:53:27;;;;;;;6.30;5.70;;;;;;;;;;6211443;23;20032;-77
2022/09/02 07:55:54;;;;;;;6.57;5.97;;;;;;;;;;6210791;23;20005;-78
2022/09/02 07:58:21;;;;;;;7.88;6.50;;;;;;;;;;6212117;23;20008;-77
2022/09/02 08:00:47;;;;;;;7.00;6.30;;;;;;;;;;6212208;23;20004;-77
2022/09/02 08:03:14;;;;;;;6.30;5.70;;;;;;;;;;6209901;23;20127;-77
2022/09/02 08:05:43;;;;;;;6.75;6.18;;;;;;;;;;6210464;23;20314;-78
2022/09/02 08:08:10;;;;;;;6.82;6.22;;;;;;;;;;6210931;23;20448;-78
2022/09/02 08:10:37;;;;;;;8.63;6.43;;;;;;;;;;6183992;23;20004;-78
2022/09/02 08:13:05;;;;;;;7.20;6.15;;;;;;;;;;6210448;23;20496;-77
2022/09/02 08:16:46;;;;;;;7.07;6.38;;;;;;;;;;5109307;27;21007;-77
2022/09/02 08:19:12;;;;;;;8.07;7.22;;;;;;;;;;5085321;28;20054;-77
2022/09/02 08:21:39;;;;;;;8.40;7.40;;;;;;;;;;5079779;28;20020;-76
2022/09/02 08:24:05;;;;;;;8.02;7.22;;;;;;;;;;5088483;28;20026;-76
2022/09/02 08:26:35;;;;;;;7.60;6.90;;;;;;;;;;5090457;28;20098;-77
2022/09/02 08:29:02;;;;;;;7.50;6.80;;;;;;;;;;5102716;28;20081;-76
2022/09/02 08:31:28;;;;;;;7.50;6.60;;;;;;;;;;5086875;28;20029;-77
2022/09/02 08:33:54;;;;;;;12.15;7.55;;;;;;;;;;5088065;28;20025;-76
2022/09/02 08:36:20;;;;;;;11.82;8.02;;;;;;;;;;5087291;28;20582;-76
2022/09/02 08:38:46;;;;;;;8.20;7.40;;;;;;;;;;5078975;28;20024;-77
2022/09/02 08:41:23;;;;;;;8.80;8.00;;;;;;;;;;5091874;28;20043;-75
2022/09/02 08:43:50;;;;;;;8.63;7.93;;;;;;;;;;5087142;28;20016;-77
2022/09/02 08:46:17;;;;;;;8.85;6.90;;;;;;;;;;5087217;28;20059;-77
2022/09/02 08:49:02;;;;;;;8.98;7.53;;;;;;;;;;5083400;28;20418;-76
2022/09/02 08:51:47;;;;;;;7.60;6.90;;;;;;;;;;5076666;28;20024;-76
2022/09/02 08:54:16;;;;;;;6.95;6.35;;;;;;;;;;5083532;28;20028;-76
2022/09/02 08:56:42;;;;;;;6.63;6.03;;;;;;;;;;5080826;28;20117;-76
2022/09/02 08:59:11;;;;;;;6.70;6.10;;;;;;;;;;5079641;28;20024;-76
2022/09/02 09:01:38;;;;;;;9.88;8.07;;;;;;;;;;5085277;28;20039;-76
2022/09/02 09:04:11;;;;;;;8.52;7.28;;;;;;;;;;5082263;28;20028;-77
2022/09/02 09:06:56;;;;;;;9.50;7.30;;;;;;;;;;5084693;28;20107;-76
2022/09/02 09:09:28;;;;;;;10.13;7.60;;;;;;;;;;5088403;28;20021;-76
2022/09/02 09:12:00;;;;;;;10.23;8.55;;;;;;;;;;5087546;28;20021;-76
2022/09/02 09:14:32;;;;;;;80.82;72.45;;;;;;;;;;5080417;28;20031;-76
2022/09/02 09:16:59;;;;;;;79.00;70.63;;;;;;;;;;5077621;28;20055;-77
2022/09/02 09:19:36;;;;;;;85.15;73.10;;;;;;;;;;5084041;28;20064;-76
2022/09/02 09:22:02;;;;;;;109.18;96.93;;;;;;;;;;5081131;28;20024;-77
2022/09/02 09:24:47;;;;;;;74.10;66.07;;;;;;;;;;5085794;28;20019;-76
2022/09/02 09:27:14;;;;;;;28.25;25.42;;;;;;;;;;5082182;28;20616;-76
2022/09/02 09:29:40;;;;;;;14.00;12.60;;;;;;;;;;5092505;28;20028;-76
2022/09/02 09:32:15;;;;;;;14.38;12.77;;;;;;;;;;5093471;28;20123;-77
2022/09/02 09:35:01;;;;;;;12.02;10.80;;;;;;;;;;5093616;28;20032;-77
2022/09/02 09:37:47;;;;;;;9.82;8.93;;;;;;;;;;5104334;28;20079;-77
2022/09/02 09:40:32;;;;;;;9.85;8.98;;;;;;;;;;5068692;28;20506;-76
2022/09/02 09:43:16;;;;;;;9.70;8.80;;;;;;;;;;5072132;28;20029;-76
2022/09/02 09:45:44;;;;;;;9.93;8.95;;;;;;;;;;5072733;28;20101;-76
2022/09/02 09:48:10;;;;;;;10.10;8.70;;;;;;;;;;5070722;28;20534;-76
2022/09/02 09:50:36;;;;;;;10.45;9.30;;;;;;;;;;5065805;28;20032;-78
2022/09/02 09:53:21;;;;;;;10.25;9.43;;;;;;;;;;5067040;28;20383;-78
2022/09/02 09:55:50;;;;;;;10.05;8.55;;;;;;;;;;5060726;28;20036;-78
2022/09/02 09:58:16;;;;;;;9.15;8.35;;;;;;;;;;5071104;28;20033;-77
2022/09/02 10:00:43;;;;;;;10.10;9.00;;;;;;;;;;5074468;28;20032;-78
2022/09/02 10:03:18;;;;;;;10.43;8.60;;;;;;;;;;5063964;28;20476;-79
2022/09/02 10:05:44;;;;;;;11.13;10.05;;;;;;;;;;5066734;28;20067;-78
2022/09/02 10:08:30;;;;;;;9.75;8.95;;;;;;;;;;5070676;28;20025;-77
2022/09/02 10:11:00;;;;;;;10.07;9.07;;;;;;;;;;5077084;28;20032;-78
2022/09/02 10:13:29;;;;;;;11.48;10.38;;;;;;;;;;5091723;28;20081;-77
2022/09/02 10:16:14;;;;;;;13.52;12.13;;;;;;;;;;5091429;28;20506;-79
2022/09/02 10:18:58;;;;;;;11.00;9.90;;;;;;;;;;5092913;28;20035;-77
2022/09/02 10:21:25;;;;;;;9.45;8.65;;;;;;;;;;5092815;28;20031;-78
2022/09/02 10:24:09;;;;;;;10.50;9.60;;;;;;;;;;5083654;28;21071;-78
2022/09/02 10:26:43;;;;;;;10.63;9.63;;;;;;;;;;5063882;28;20093;-79
2022/09/02 10:29:27;;;;;;;10.23;9.32;;;;;;;;;;5065898;28;20037;-78
2022/09/02 10:32:12;;;;;;;10.20;9.23;;;;;;;;;;5066467;28;20032;-77
2022/09/02 10:34:39;;;;;;;10.15;9.25;;;;;;;;;;5066122;28;20031;-79
2022/09/02 10:37:18;;;;;;;10.45;9.45;;;;;;;;;;5072629;28;20505;-78
2022/09/02 10:39:57;;;;;;;10.40;9.60;;;;;;;;;;5068517;28;20043;-77
2022/09/02 10:42:33;;;;;;;10.50;9.50;;;;;;;;;;5067643;28;20029;-77
2022/09/02 10:45:25;;;;;;;10.90;9.90;;;;;;;;;;5060810;28;20029;-77
2022/09/02 10:48:00;;;;;;;10.93;9.82;;;;;;;;;;5043909;28;20044;-76
2022/09/02 10:50:47;;;;;;;10.45;9.52;;;;;;;;;;5051958;28;20025;-76
2022/09/02 10:53:13;;;;;;;10.98;9.88;;;;;;;;;;5062089;28;20031;-77
2022/09/02 10:55:40;;;;;;;10.73;9.73;;;;;;;;;;5067952;28;20076;-77
2022/09/02 10:58:39;;;;;;;11.35;10.35;;;;;;;;;;5064194;28;20365;-77
2022/09/02 11:01:10;;;;;;;11.57;10.55;;;;;;;;;;5063111;28;20044;-78
2022/09/02 11:03:42;;;;;;;12.88;11.77;;;;;;;;;;5073706;28;20036;-75
2022/09/02 11:06:12;;;;;;;11.60;10.52;;;;;;;;;;5063617;28;20035;-79
2022/09/02 11:08:39;;;;;;;11.00;10.07;;;;;;;;;;5073420;28;20101;-78
2022/09/02 11:11:12;;;;;;;11.30;10.32;;;;;;;;;;5071569;28;20439;-77
2022/09/02 11:13:56;;;;;;;12.37;11.17;;;;;;;;;;5070362;28;20138;-78
2022/09/02 11:16:29;;;;;;;11.43;10.32;;;;;;;;;;5064017;28;20093;-77
2022/09/02 11:19:14;;;;;;;16.88;12.40;;;;;;;;;;5063739;28;20481;-77
2022/09/02 11:21:45;;;;;;;17.90;11.20;;;;;;;;;;5067347;28;20103;-79
2022/09/02 11:24:19;;;;;;;10.90;9.88;;;;;;;;;;5066798;28;20021;-78
2022/09/02 11:27:04;;;;;;;12.52;11.27;;;;;;;;;;5063599;28;20146;-79
2022/09/02 11:29:36;;;;;;;10.73;9.82;;;;;;;;;;5059557;28;20431;-79
2022/09/02 11:32:21;;;;;;;11.50;10.23;;;;;;;;;;5061489;28;20035;-78
2022/09/02 11:34:51;;;;;;;10.98;9.88;;;;;;;;;;5061035;28;20560;-79
2022/09/02 11:37:36;;;;;;;11.55;10.23;;;;;;;;;;5068251;28;20024;-79
2022/09/02 11:40:05;;;;;;;12.50;11.20;;;;;;;;;;5075853;28;20045;-78
2022/09/02 11:42:40;;;;;;;11.60;10.50;;;;;;;;;;5063311;28;20040;-78
2022/09/02 11:45:16;;;;;;;12.80;11.70;;;;;;;;;;5076830;28;20040;-77
2022/09/02 11:48:03;;;;;;;14.15;12.70;;;;;;;;;;5057224;28;20082;-78
2022/09/02 11:50:44;;;;;;;13.48;12.18;;;;;;;;;;5065345;28;20060;-77
2022/09/02 11:53:16;;;;;;;12.70;11.60;;;;;;;;;;5061762;28;20028;-79
2022/09/02 11:55:49;;;;;;;12.40;11.07;;;;;;;;;;5077103;28;20372;-77
2022/09/02 11:58:30;;;;;;;12.48;11.48;;;;;;;;;;5062915;28;20099;-76
2022/09/02 12:00:59;;;;;;;13.00;11.80;;;;;;;;;;5057650;28;20027;-75
2022/09/02 12:03:31;;;;;;;11.73;10.63;;;;;;;;;;5064812;28;20475;-76
2022/09/02 12:06:11;;;;;;;11.05;9.95;;;;;;;;;;5069036;28;20033;-76
2022/09/02 12:08:41;;;;;;;11.70;10.32;;;;;;;;;;5066410;28;20388;-77
2022/09/02 12:11:08;;;;;;;10.68;9.73;;;;;;;;;;5066487;28;20048;-77
2022/09/02 12:13:40;;;;;;;12.77;11.55;;;;;;;;;;5063856;28;20037;-77
2022/09/02 12:16:25;;;;;;;10.25;9.35;;;;;;;;;;5061841;28;20764;-77
2022/09/02 12:18:56;;;;;;;10.43;9.52;;;;;;;;;;5060902;28;20024;-76
2022/09/02 12:21:23;;;;;;;10.65;9.70;;;;;;;;;;5062623;28;20036;-77
2022/09/02 12:23:49;;;;;;;12.07;11.05;;;;;;;;;;5064084;28;20536;-76
2022/09/02 12:26:16;;;;;;;11.93;10.48;;;;;;;;;;5064102;28;20130;-76
2022/09/02 12:28:45;;;;;;;11.40;10.40;;;;;;;;;;5062652;28;20398;-75
2022/09/02 12:31:14;;;;;;;11.88;10.88;;;;;;;;;;5071825;28;20033;-76
2022/09/02 12:33:44;;;;;;;10.77;9.70;;;;;;;;;;5063334;28;20025;-76
2022/09/02 12:36:30;;;;;;;11.90;10.50;;;;;;;;;;5066506;28;20028;-77
2022/09/02 12:39:16;;;;;;;11.50;10.45;;;;;;;;;;5054855;28;20058;-75
2022/09/02 12:41:43;;;;;;;11.32;10.25;;;;;;;;;;5061897;28;20025;-77
2022/09/02 12:44:27;;;;;;;11.57;10.48;;;;;;;;;;5058700;28;20029;-77
2022/09/02 12:46:59;;;;;;;11.82;10.63;;;;;;;;;;5061452;28;20032;-76
2022/09/02 12:49:29;;;;;;;11.18;10.13;;;;;;;;;;5070106;28;20039;-77
2022/09/02 12:51:57;;;;;;;11.43;10.30;;;;;;;;;;5065330;28;20039;-77
2022/09/02 12:54:39;;;;;;;10.80;9.80;;;;;;;;;;5065864;28;20032;-76
2022/09/02 12:57:07;;;;;;;11.77;10.65;;;;;;;;;;5065740;28;20511;-78
2022/09/02 12:59:38;;;;;;;11.57;10.55;;;;;;;;;;5062345;28;20067;-77
2022/09/02 13:02:04;;;;;;;11.77;10.68;;;;;;;;;;5052755;28;20043;-76
2022/09/02 13:04:39;;;;;;;12.25;11.15;;;;;;;;;;5069288;28;20086;-77
2022/09/02 13:07:20;;;;;;;10.65;9.73;;;;;;;;;;5071189;28;20029;-76
2022/09/02 13:09:46;;;;;;;11.35;10.35;;;;;;;;;;5074044;28;20119;-76
2022/09/02 13:12:15;;;;;;;11.82;10.68;;;;;;;;;;5071089;28;20029;-76
2022/09/02 13:14:50;;;;;;;11.52;10.15;;;;;;;;;;5070685;28;20560;-75
2022/09/02 13:17:17;;;;;;;14.45;13.00;;;;;;;;;;5073872;28;20036;-74
2022/09/02 13:20:01;;;;;;;20.02;18.05;;;;;;;;;;5059264;28;20033;-74
2022/09/02 13:22:36;;;;;;;16.02;14.43;;;;;;;;;;5064327;28;20077;-74
2022/09/02 13:25:08;;;;;;;12.30;11.15;;;;;;;;;;5073787;28;20024;-75
2022/09/02 13:27:44;;;;;;;11.43;10.32;;;;;;;;;;5073401;28;20033;-74
2022/09/02 13:30:10;;;;;;;16.23;14.63;;;;;;;;;;5072304;28;20029;-75
2022/09/02 13:32:36;;;;;;;12.80;11.70;;;;;;;;;;5073750;28;20036;-75
2022/09/02 13:35:05;;;;;;;11.85;10.57;;;;;;;;;;5073648;28;20020;-74
2022/09/02 13:37:36;;;;;;;12.27;11.27;;;;;;;;;;5072847;28;20028;-75
2022/09/02 13:40:25;;;;;;;12.07;10.95;;;;;;;;;;5075136;28;20032;-75
2022/09/02 13:42:53;;;;;;;11.85;10.77;;;;;;;;;;5047977;28;20461;-75
2022/09/02 13:45:20;;;;;;;10.98;9.98;;;;;;;;;;5052408;28;20054;-75
2022/09/02 13:47:49;;;;;;;12.85;11.57;;;;;;;;;;5065426;28;20028;-75
2022/09/02 13:50:18;;;;;;;12.38;11.05;;;;;;;;;;5072812;28;20032;-74
2022/09/02 13:52:45;;;;;;;12.13;11.02;;;;;;;;;;5074056;28;20024;-74
2022/09/02 13:55:13;;;;;;;11.07;9.95;;;;;;;;;;5073219;28;20024;-75
2022/09/02 13:57:43;;;;;;;11.07;10.05;;;;;;;;;;5072220;28;20032;-75
2022/09/02 14:00:12;;;;;;;11.68;10.57;;;;;;;;;;5072607;28;20391;-74
2022/09/02 14:02:38;;;;;;;12.85;11.60;;;;;;;;;;5071964;28;20380;-75
2022/09/02 14:05:04;;;;;;;11.88;10.77;;;;;;;;;;5072547;28;20028;-75
2022/09/02 14:07:41;;;;;;;12.10;10.93;;;;;;;;;;5072170;28;20028;-75
2022/09/02 14:10:09;;;;;;;10.07;9.13;;;;;;;;;;5072486;28;20020;-76
2022/09/02 14:12:37;;;;;;;10.38;7.38;;;;;;;;;;5071829;28;20234;-76
2022/09/02 14:15:05;;;;;;;7.97;6.35;;;;;;;;;;5068863;28;20100;-75
2022/09/02 14:17:33;;;;;;;9.52;7.82;;;;;;;;;;5060404;28;20058;-75
2022/09/02 14:20:08;;;;;;;18.40;15.57;;;;;;;;;;5068971;28;20028;-75
2022/09/02 14:22:35;;;;;;;7.88;7.18;;;;;;;;;;5058762;28;20021;-74
2022/09/02 14:25:20;;;;;;;8.20;6.95;;;;;;;;;;5062509;28;20021;-76
2022/09/02 14:27:51;;;;;;;8.27;7.20;;;;;;;;;;5061304;28;20086;-76
2022/09/02 14:30:26;;;;;;;9.48;8.48;;;;;;;;;;5061518;28;20024;-76
2022/09/02 14:33:12;;;;;;;9.90;8.90;;;;;;;;;;5070998;28;20402;-76
2022/09/02 14:35:38;;;;;;;11.48;9.95;;;;;;;;;;5073270;28;20093;-75
2022/09/02 14:38:04;;;;;;;13.15;10.32;;;;;;;;;;5073901;28;20051;-76
2022/09/02 14:40:35;;;;;;;15.35;11.77;;;;;;;;;;5075820;28;20024;-76
2022/09/02 14:43:03;;;;;;;19.27;16.30;;;;;;;;;;5067762;28;20037;-75
2022/09/02 14:45:31;;;;;;;15.35;11.32;;;;;;;;;;5063483;28;20455;-76
2022/09/02 14:47:59;;;;;;;48.78;43.05;;;;;;;;;;5062497;28;20063;-75